createdAt,value
2022-09-22T00:01:32.234Z,0.95
2022-09-22T00:04:03.401Z,1.15
2022-09-22T00:06:43.534Z,1.17
2022-09-22T00:09:13.678Z,1.10
2022-09-22T00:11:44.875Z,1.20
2022-09-22T00:14:22.251Z,1.10
2022-09-22T00:16:53.902Z,1.38
2022-09-22T00:19:29.034Z,1.00
2022-09-22T00:21:57.141Z,0.82
2022-09-22T00:24:26.200Z,0.70
2022-09-22T00:26:57.430Z,0.55
2022-09-22T00:29:27.086Z,1.60
2022-09-22T00:31:55.795Z,1.80
2022-09-22T00:34:26.037Z,1.15
2022-09-22T00:36:53.836Z,0.85
2022-09-22T00:39:21.871Z,0.98
2022-09-22T00:41:52.019Z,0.77
2022-09-22T00:44:38.559Z,0.80
2022-09-22T00:47:06.479Z,1.00
2022-09-22T00:49:52.266Z,1.40
2022-09-22T00:52:24.759Z,1.15
2022-09-22T00:54:55.464Z,1.00
2022-09-22T00:57:26.694Z,1.77
2022-09-22T00:59:55.500Z,0.80
2022-09-22T01:02:24.236Z,0.60
2022-09-22T01:04:53.433Z,0.50
2022-09-22T01:07:25.208Z,0.80
2022-09-22T01:09:53.217Z,0.63
2022-09-22T01:12:21.250Z,0.90
2022-09-22T01:15:03.994Z,0.88
2022-09-22T01:17:38.659Z,1.10
2022-09-22T01:20:29.413Z,1.23
2022-09-22T01:23:09.066Z,0.80
2022-09-22T01:25:59.508Z,1.00
2022-09-22T01:28:48.895Z,0.93
2022-09-22T01:31:38.857Z,1.65
2022-09-22T01:34:20.064Z,1.10
2022-09-22T01:37:02.570Z,1.45
2022-09-22T01:39:40.263Z,0.90
2022-09-22T01:42:16.510Z,0.80
2022-09-22T01:44:55.217Z,0.70
2022-09-22T01:47:40.791Z,0.70
2022-09-22T01:50:16.492Z,0.60
2022-09-22T01:52:45.321Z,0.80
2022-09-22T01:55:19.950Z,0.77
2022-09-22T01:58:04.844Z,0.68
2022-09-22T02:00:32.737Z,0.63
2022-09-22T02:03:42.343Z,1.17
2022-09-22T02:06:14.390Z,0.95
2022-09-22T02:08:57.196Z,0.88
2022-09-22T02:11:26.015Z,0.93
2022-09-22T02:13:54.824Z,0.68
2022-09-22T02:16:24.951Z,1.35
2022-09-22T02:19:11.623Z,2.65
2022-09-22T02:21:43.020Z,1.48
2022-09-22T02:24:45.508Z,1.20
2022-09-22T02:27:28.011Z,1.00
2022-09-22T02:30:16.615Z,0.50
2022-09-22T02:32:48.911Z,0.60
2022-09-22T02:35:17.151Z,0.63
2022-09-22T02:38:02.894Z,0.60
2022-09-22T02:40:36.177Z,0.70
2022-09-22T02:43:43.848Z,0.82
2022-09-22T02:46:25.761Z,1.15
2022-09-22T02:49:03.944Z,1.17
2022-09-22T02:51:34.540Z,0.77
2022-09-22T02:54:03.492Z,0.90
2022-09-22T02:56:31.123Z,0.80
2022-09-22T02:58:58.915Z,0.90
2022-09-22T03:01:26.944Z,0.70
2022-09-22T03:03:54.881Z,1.00
2022-09-22T03:06:22.428Z,1.23
2022-09-22T03:08:50.379Z,0.70
2022-09-22T03:11:17.900Z,0.80
2022-09-22T03:13:45.574Z,0.90
2022-09-22T03:16:13.808Z,1.08
2022-09-22T03:18:41.466Z,1.13
2022-09-22T03:21:09.390Z,0.98
2022-09-22T03:23:36.843Z,2.20
2022-09-22T03:26:04.454Z,1.42
2022-09-22T03:28:32.469Z,1.00
2022-09-22T03:30:59.952Z,0.88
2022-09-22T03:33:27.502Z,1.00
2022-09-22T03:35:54.998Z,0.90
2022-09-22T03:38:22.785Z,0.93
2022-09-22T03:40:52.654Z,1.10
2022-09-22T03:43:21.518Z,1.33
2022-09-22T03:45:49.212Z,1.05
2022-09-22T03:48:18.284Z,0.88
2022-09-22T03:50:46.367Z,0.77
2022-09-22T03:53:13.826Z,0.95
2022-09-22T03:55:42.068Z,1.50
2022-09-22T03:58:09.589Z,0.60
2022-09-22T04:00:37.180Z,1.23
2022-09-22T04:03:05.011Z,0.98
2022-09-22T04:05:32.659Z,0.73
2022-09-22T04:08:01.020Z,1.10
2022-09-22T04:10:28.863Z,0.93
2022-09-22T04:12:56.381Z,0.80
2022-09-22T04:15:23.919Z,1.17
2022-09-22T04:17:51.467Z,1.00
2022-09-22T04:20:19.525Z,0.80
2022-09-22T04:22:47.136Z,1.90
2022-09-22T04:25:14.768Z,1.00
2022-09-22T04:27:42.736Z,1.40
2022-09-22T04:30:11.720Z,0.80
2022-09-22T04:32:40.091Z,1.15
2022-09-22T04:35:09.491Z,1.00
2022-09-22T04:37:37.468Z,1.00
2022-09-22T04:40:06.176Z,0.75
2022-09-22T04:42:34.132Z,1.05
2022-09-22T04:45:02.085Z,0.80
2022-09-22T04:47:30.571Z,1.02
2022-09-22T04:49:58.079Z,1.90
2022-09-22T04:52:26.371Z,1.20
2022-09-22T04:54:54.107Z,1.08
2022-09-22T04:57:22.834Z,1.40
2022-09-22T04:59:50.740Z,1.08
2022-09-22T05:02:19.170Z,1.30
2022-09-22T05:04:46.682Z,1.48
2022-09-22T05:07:15.194Z,1.60
2022-09-22T05:09:42.868Z,2.10
2022-09-22T05:12:10.364Z,2.38
2022-09-22T05:14:38.356Z,1.77
2022-09-22T05:17:06.284Z,2.38
2022-09-22T05:19:34.606Z,2.00
2022-09-22T05:22:02.574Z,1.77
2022-09-22T05:24:30.396Z,1.80
2022-09-22T05:26:59.104Z,1.77
2022-09-22T05:29:28.109Z,1.27
2022-09-22T05:31:56.170Z,1.40
2022-09-22T05:34:24.277Z,1.42
2022-09-22T05:36:51.846Z,1.23
2022-09-22T05:39:19.536Z,1.77
2022-09-22T05:41:49.930Z,1.08
2022-09-22T05:44:17.487Z,1.27
2022-09-22T05:46:46.815Z,1.35
2022-09-22T05:49:14.511Z,1.48
2022-09-22T05:51:42.711Z,0.95
2022-09-22T05:54:10.428Z,1.10
2022-09-22T05:56:37.971Z,1.02
2022-09-22T05:59:05.917Z,1.73
2022-09-22T06:01:34.174Z,1.20
2022-09-22T06:04:01.952Z,0.98
2022-09-22T06:06:29.459Z,1.95
2022-09-22T06:08:57.283Z,1.00
2022-09-22T06:11:24.875Z,1.13
2022-09-22T06:13:52.437Z,1.08
2022-09-22T06:16:21.228Z,1.45
2022-09-22T06:18:49.674Z,1.33
2022-09-22T06:21:17.683Z,1.00
2022-09-22T06:23:45.180Z,1.38
2022-09-22T06:26:12.856Z,1.20
2022-09-22T06:28:40.865Z,1.73
2022-09-22T06:31:08.875Z,1.38
2022-09-22T06:33:36.384Z,1.42
2022-09-22T06:36:08.078Z,1.30
2022-09-22T06:38:36.293Z,1.25
2022-09-22T06:41:06.731Z,1.10
2022-09-22T06:43:38.031Z,1.30
2022-09-22T06:46:05.907Z,1.48
2022-09-22T06:48:33.590Z,1.30
2022-09-22T06:51:01.505Z,1.02
2022-09-22T06:53:29.268Z,1.20
2022-09-22T06:55:58.497Z,1.13
2022-09-22T06:58:28.057Z,1.02
2022-09-22T07:01:00.932Z,1.55
2022-09-22T07:03:29.061Z,1.20
2022-09-22T07:06:01.043Z,1.25
2022-09-22T07:08:31.592Z,0.85
2022-09-22T07:11:02.353Z,0.80
2022-09-22T07:13:32.324Z,1.23
2022-09-22T07:16:19.653Z,1.15
2022-09-22T07:18:50.115Z,0.90
2022-09-22T07:21:28.061Z,0.95
2022-09-22T07:23:57.155Z,1.13
2022-09-22T07:26:29.013Z,0.98
2022-09-22T07:28:59.741Z,1.30
2022-09-22T07:31:29.578Z,0.98
2022-09-22T07:34:01.338Z,0.82
2022-09-22T07:36:31.408Z,0.52
2022-09-22T07:39:07.224Z,0.70
2022-09-22T07:41:41.864Z,1.02
2022-09-22T07:44:30.340Z,1.27
2022-09-22T07:46:58.445Z,0.75
2022-09-22T07:49:26.226Z,0.93
2022-09-22T07:51:57.746Z,0.80
2022-09-22T07:54:26.812Z,0.65
2022-09-22T07:57:02.264Z,0.90
2022-09-22T07:59:29.864Z,0.65
2022-09-22T08:01:58.232Z,0.55
2022-09-22T08:04:26.781Z,0.63
2022-09-22T08:06:58.239Z,0.77
2022-09-22T08:09:28.282Z,0.60
2022-09-22T08:11:56.056Z,1.15
2022-09-22T08:14:24.313Z,0.70
2022-09-22T08:16:53.603Z,0.95
2022-09-22T08:19:23.932Z,0.60
2022-09-22T08:21:54.430Z,0.68
2022-09-22T08:24:23.702Z,0.50
2022-09-22T08:26:53.809Z,0.60
2022-09-22T08:29:22.164Z,0.85
2022-09-22T08:31:51.527Z,1.02
2022-09-22T08:34:20.403Z,0.63
2022-09-22T08:36:49.104Z,0.88
2022-09-22T08:39:18.315Z,0.70
2022-09-22T08:41:47.057Z,1.00
2022-09-22T08:44:24.035Z,0.80
2022-09-22T08:46:53.525Z,0.98
2022-09-22T08:49:42.615Z,0.80
2022-09-22T08:52:25.545Z,1.45
2022-09-22T08:54:59.757Z,0.70
2022-09-22T08:57:42.368Z,0.77
2022-09-22T09:00:13.026Z,0.70
2022-09-22T09:02:55.594Z,0.80
2022-09-22T09:05:39.274Z,0.88
2022-09-22T09:08:15.895Z,0.77
2022-09-22T09:10:56.317Z,0.98
2022-09-22T09:13:48.797Z,0.77
2022-09-22T09:16:37.803Z,0.82
2022-09-22T09:19:17.129Z,0.40
2022-09-22T09:21:51.797Z,0.80
2022-09-22T09:27:30.569Z,0.70
2022-09-22T09:30:11.573Z,1.00
2022-09-22T09:32:53.367Z,0.68
2022-09-22T09:35:50.546Z,0.43
2022-09-22T09:38:26.340Z,0.50
2022-09-22T09:41:01.551Z,0.40
2022-09-22T09:43:30.291Z,0.75
2022-09-22T09:46:10.309Z,0.52
2022-09-22T09:48:59.530Z,0.30
2022-09-22T09:51:28.823Z,0.63
2022-09-22T09:53:58.575Z,0.57
2022-09-22T09:56:29.153Z,0.50
2022-09-22T09:59:19.044Z,0.73
2022-09-22T10:01:50.790Z,0.32
2022-09-22T10:04:29.935Z,0.40
2022-09-22T10:07:21.499Z,0.68
2022-09-22T10:09:51.886Z,0.70
2022-09-22T10:12:31.332Z,1.55
2022-09-22T10:15:01.480Z,0.70
2022-09-22T10:17:33.936Z,1.25
2022-09-22T10:20:23.274Z,1.23
2022-09-22T10:22:50.792Z,1.10
2022-09-22T10:25:23.313Z,1.05
2022-09-22T10:28:15.801Z,0.80
2022-09-22T10:30:46.511Z,0.50
2022-09-22T10:33:20.568Z,0.70
2022-09-22T10:36:15.045Z,1.17
2022-09-22T10:38:43.793Z,1.35
2022-09-22T10:41:19.355Z,1.08
2022-09-22T10:44:15.474Z,0.80
2022-09-22T10:47:27.385Z,1.20
2022-09-22T10:50:01.000Z,6.72
2022-09-22T10:55:11.100Z,1.90
2022-09-22T10:58:00.243Z,1.23
2022-09-22T11:00:35.258Z,1.67
2022-09-22T11:03:05.790Z,1.00
2022-09-22T11:06:29.725Z,1.17
2022-09-22T11:09:45.645Z,0.75
2022-09-22T11:12:43.079Z,1.13
2022-09-22T11:15:39.984Z,1.02
2022-09-22T11:18:33.610Z,1.30
2022-09-22T11:21:10.874Z,0.88
2022-09-22T11:24:00.448Z,0.85
2022-09-22T11:26:29.155Z,1.88
2022-09-22T11:29:09.818Z,1.23
2022-09-22T11:31:54.199Z,1.77
2022-09-22T11:34:48.836Z,1.15
2022-09-22T11:37:31.753Z,0.80
2022-09-22T11:40:27.484Z,1.40
2022-09-22T11:43:21.805Z,1.10
2022-09-22T11:46:15.736Z,0.90
2022-09-22T11:49:09.977Z,1.30
2022-09-22T11:51:45.096Z,0.90
2022-09-22T11:54:47.026Z,1.15
2022-09-22T11:57:18.168Z,1.45
2022-09-22T11:59:53.713Z,1.10
2022-09-22T12:03:01.932Z,1.08
2022-09-22T12:05:39.309Z,0.93
2022-09-22T12:08:25.636Z,1.05
2022-09-22T12:10:54.323Z,1.80
2022-09-22T12:13:28.237Z,1.13
2022-09-22T12:16:22.528Z,1.10
2022-09-22T12:18:50.604Z,1.10
2022-09-22T12:21:27.420Z,1.08
2022-09-22T12:23:57.230Z,1.10
2022-09-22T12:26:33.633Z,0.90
2022-09-22T12:29:07.086Z,1.67
2022-09-22T12:31:42.666Z,0.98
2022-09-22T12:34:22.413Z,0.90
2022-09-22T12:36:55.519Z,1.17
2022-09-22T12:42:29.784Z,0.95
2022-09-22T12:45:03.040Z,0.90
2022-09-22T12:47:38.374Z,0.93
2022-09-22T12:50:27.881Z,0.82
2022-09-22T12:53:03.904Z,0.93
2022-09-22T12:55:41.081Z,1.10
2022-09-22T12:58:20.666Z,1.27
2022-09-22T13:00:50.758Z,1.17
2022-09-22T13:03:27.594Z,1.02
2022-09-22T13:05:56.618Z,1.02
2022-09-22T13:08:33.808Z,1.23
2022-09-22T13:11:09.423Z,1.13
2022-09-22T13:13:46.872Z,1.00
2022-09-22T13:16:15.001Z,1.58
2022-09-22T13:18:44.031Z,1.00
2022-09-22T13:21:14.922Z,1.08
2022-09-22T13:23:51.519Z,1.25
2022-09-22T13:26:29.690Z,1.33
2022-09-22T13:29:01.711Z,1.50
2022-09-22T13:31:36.637Z,2.13
2022-09-22T13:34:35.423Z,1.45
2022-09-22T13:37:33.517Z,1.15
2022-09-22T13:40:02.177Z,1.40
2022-09-22T13:42:32.618Z,1.55
2022-09-22T13:45:18.634Z,1.00
2022-09-22T13:47:48.910Z,1.95
2022-09-22T13:50:22.160Z,2.00
2022-09-22T13:52:51.936Z,1.73
2022-09-22T13:55:33.716Z,1.80
2022-09-22T13:58:03.255Z,1.35
2022-09-22T14:01:08.670Z,1.42
2022-09-22T14:03:37.245Z,1.45
2022-09-22T14:06:09.311Z,1.10
2022-09-22T14:08:37.774Z,1.10
2022-09-22T14:11:12.075Z,1.40
2022-09-22T14:14:01.036Z,1.60
2022-09-22T14:16:51.612Z,1.20
2022-09-22T14:19:38.115Z,1.20
2022-09-22T14:22:15.566Z,1.60
2022-09-22T14:24:49.293Z,1.27
2022-09-22T14:27:21.285Z,1.20
2022-09-22T14:29:52.114Z,1.35
2022-09-22T14:32:25.579Z,1.25
2022-09-22T14:34:58.487Z,1.00
2022-09-22T14:37:43.151Z,1.00
2022-09-22T14:40:23.016Z,1.15
2022-09-22T14:43:03.228Z,0.95
2022-09-22T14:45:32.777Z,1.27
2022-09-22T14:48:13.020Z,1.50
2022-09-22T14:50:45.773Z,0.98
2022-09-22T14:55:48.460Z,1.88
2022-09-22T14:58:24.031Z,1.38
2022-09-22T15:01:17.255Z,1.15
2022-09-22T15:03:55.251Z,1.40
2022-09-22T15:06:23.473Z,1.13
2022-09-22T15:08:52.782Z,1.52
2022-09-22T15:11:20.449Z,1.23
2022-09-22T15:13:52.797Z,1.00
2022-09-22T15:16:40.171Z,1.38
2022-09-22T15:19:14.427Z,1.15
2022-09-22T15:21:47.003Z,1.60
2022-09-22T15:24:21.280Z,1.70
2022-09-22T15:26:49.539Z,1.15
2022-09-22T15:29:17.398Z,1.33
2022-09-22T15:31:45.113Z,1.20
2022-09-22T15:34:16.597Z,1.02
2022-09-22T15:36:46.661Z,0.95
2022-09-22T15:39:23.310Z,0.73
2022-09-22T15:41:52.761Z,0.95
2022-09-22T15:44:20.637Z,1.00
2022-09-22T15:46:52.532Z,1.17
2022-09-22T15:49:25.062Z,1.15
2022-09-22T15:51:53.040Z,0.95
2022-09-22T15:54:23.824Z,1.00
2022-09-22T15:56:53.385Z,1.20
2022-09-22T15:59:26.709Z,1.20
2022-09-22T16:01:57.475Z,1.42
2022-09-22T16:04:31.762Z,0.90
2022-09-22T16:07:04.737Z,1.73
2022-09-22T16:09:32.300Z,1.00
2022-09-22T16:11:59.971Z,1.35
2022-09-22T16:14:28.441Z,1.48
2022-09-22T16:16:56.119Z,1.05
2022-09-22T16:19:24.629Z,1.00
2022-09-22T16:21:54.403Z,1.20
2022-09-22T16:24:22.917Z,0.93
2022-09-22T16:26:51.859Z,1.33
2022-09-22T16:29:19.663Z,1.30
2022-09-22T16:31:47.846Z,1.25
2022-09-22T16:34:16.494Z,1.02
2022-09-22T16:36:44.869Z,0.82
2022-09-22T16:39:12.392Z,0.88
2022-09-22T16:41:44.802Z,1.25
2022-09-22T16:44:13.328Z,1.58
2022-09-22T16:46:41.029Z,1.70
2022-09-22T16:49:12.077Z,1.42
2022-09-22T16:51:42.338Z,1.50
2022-09-22T16:54:13.822Z,1.67
2022-09-22T16:56:43.928Z,1.20
2022-09-22T16:59:15.416Z,1.10
2022-09-22T17:01:44.141Z,1.52
2022-09-22T17:04:16.542Z,1.98
2022-09-22T17:06:44.697Z,2.13
2022-09-22T17:09:14.359Z,2.10
2022-09-22T17:11:44.098Z,1.65
2022-09-22T17:14:15.483Z,1.90
2022-09-22T17:16:45.243Z,1.80
2022-09-22T17:19:19.496Z,1.67
2022-09-22T17:21:49.267Z,1.25
2022-09-22T17:24:19.302Z,1.73
2022-09-22T17:26:55.167Z,1.63
2022-09-22T17:29:28.320Z,1.27
2022-09-22T17:31:59.760Z,1.30
2022-09-22T17:34:28.909Z,1.75
2022-09-22T17:36:57.988Z,1.90
2022-09-22T17:39:27.375Z,2.33
2022-09-22T17:41:55.224Z,2.92
2022-09-22T17:44:23.390Z,2.17
2022-09-22T17:47:11.482Z,1.80
2022-09-22T17:50:02.908Z,2.00
2022-09-22T17:52:33.517Z,2.47
2022-09-22T17:55:08.043Z,2.22
2022-09-22T17:57:41.852Z,1.95
2022-09-22T18:02:39.103Z,10.95
2022-09-22T18:05:10.476Z,1.95
2022-09-22T18:07:40.388Z,4.22
2022-09-22T18:10:14.469Z,2.65
2022-09-22T18:12:42.372Z,2.47
2022-09-22T18:15:13.536Z,2.90
2022-09-22T18:17:43.040Z,2.17
2022-09-22T18:20:16.287Z,3.45
2022-09-22T18:22:48.418Z,3.67
2022-09-22T18:25:19.638Z,2.97
2022-09-22T18:27:50.710Z,2.88
2022-09-22T18:30:19.559Z,3.15
2022-09-22T18:32:48.367Z,2.67
2022-09-22T18:35:16.427Z,3.47
2022-09-22T18:37:44.636Z,2.70
2022-09-22T18:40:12.856Z,2.45
2022-09-22T18:42:43.051Z,3.40
2022-09-22T18:45:11.254Z,2.50
2022-09-22T18:47:43.860Z,2.40
2022-09-22T18:50:13.055Z,2.58
2022-09-22T18:52:43.472Z,2.10
2022-09-22T18:55:14.134Z,3.25
2022-09-22T18:57:41.615Z,1.90
2022-09-22T19:00:11.315Z,1.90
2022-09-22T19:02:39.572Z,1.95
2022-09-22T19:05:08.636Z,2.10
2022-09-22T19:07:43.030Z,2.30
2022-09-22T19:10:19.034Z,2.28
2022-09-22T19:12:47.144Z,2.20
2022-09-22T19:15:18.850Z,1.70
2022-09-22T19:17:49.595Z,2.08
2022-09-22T19:20:23.958Z,2.13
2022-09-22T19:22:52.600Z,2.08
2022-09-22T19:25:22.098Z,1.95
2022-09-22T19:27:52.374Z,2.10
2022-09-22T19:30:23.289Z,1.83
2022-09-22T19:32:53.602Z,1.60
2022-09-22T19:35:21.772Z,2.13
2022-09-22T19:37:51.901Z,1.70
2022-09-22T19:40:21.036Z,1.63
2022-09-22T19:42:49.904Z,1.75
2022-09-22T19:45:19.089Z,1.77
2022-09-22T19:47:49.573Z,1.60
2022-09-22T19:50:17.989Z,2.03
2022-09-22T19:52:45.498Z,1.65
2022-09-22T19:55:13.331Z,1.77
2022-09-22T19:57:41.837Z,1.38
2022-09-22T20:00:17.234Z,1.58
2022-09-22T20:02:45.490Z,1.50
2022-09-22T20:05:20.726Z,1.52
2022-09-22T20:07:49.079Z,1.13
2022-09-22T20:10:19.024Z,1.83
2022-09-22T20:12:47.002Z,2.20
2022-09-22T20:15:15.893Z,1.80
2022-09-22T20:17:46.276Z,1.70
2022-09-22T20:20:25.295Z,1.75
2022-09-22T20:23:00.179Z,1.63
2022-09-22T20:25:30.382Z,1.75
2022-09-22T20:27:58.974Z,1.70
2022-09-22T20:30:27.532Z,1.83
2022-09-22T20:32:55.030Z,2.20
2022-09-22T20:35:22.730Z,2.20
2022-09-22T20:37:51.697Z,1.60
2022-09-22T20:40:21.604Z,1.80
2022-09-22T20:42:50.863Z,2.50
2022-09-22T20:45:21.027Z,1.90
2022-09-22T20:47:49.575Z,1.70
2022-09-22T20:50:18.535Z,2.53
2022-09-22T20:52:47.430Z,1.90
2022-09-22T20:55:15.583Z,1.98
2022-09-22T20:57:43.842Z,2.85
2022-09-22T21:00:13.263Z,2.10
2022-09-22T21:02:41.117Z,1.83
2022-09-22T21:05:08.930Z,2.28
2022-09-22T21:07:36.883Z,2.70
2022-09-22T21:10:23.343Z,2.33
2022-09-22T21:12:55.025Z,2.55
2022-09-22T21:15:22.991Z,5.30
2022-09-22T21:17:52.922Z,4.80
2022-09-22T21:20:20.635Z,2.58
2022-09-22T21:22:48.187Z,2.38
2022-09-22T21:25:16.117Z,2.90
2022-09-22T21:27:45.290Z,5.85
2022-09-22T21:30:13.283Z,3.13
2022-09-22T21:32:40.838Z,2.95
2022-09-22T21:35:08.971Z,2.53
2022-09-22T21:37:36.537Z,3.10
2022-09-22T21:40:04.496Z,3.90
2022-09-22T21:42:32.468Z,2.65
2022-09-22T21:45:00.017Z,3.72
2022-09-22T21:47:27.462Z,3.35
2022-09-22T21:49:54.957Z,2.58
2022-09-22T21:52:22.866Z,2.95
2022-09-22T21:54:50.839Z,3.75
2022-09-22T21:57:18.403Z,3.38
2022-09-22T21:59:46.361Z,5.88
2022-09-22T22:02:14.109Z,2.95
2022-09-22T22:04:41.898Z,2.67
2022-09-22T22:07:11.076Z,2.60
2022-09-22T22:09:38.615Z,2.85
2022-09-22T22:12:06.801Z,3.15
2022-09-22T22:14:34.913Z,2.95
2022-09-22T22:17:04.205Z,2.63
2022-09-22T22:19:32.743Z,2.80
2022-09-22T22:22:00.311Z,4.55
2022-09-22T22:24:28.956Z,3.25
2022-09-22T22:27:01.354Z,4.18
2022-09-22T22:29:32.201Z,8.32
2022-09-22T22:31:59.680Z,9.65
2022-09-22T22:34:28.035Z,5.40
2022-09-22T22:36:56.171Z,3.47
2022-09-22T22:39:24.672Z,3.15
2022-09-22T22:41:54.543Z,3.00
2022-09-22T22:44:22.865Z,3.90
2022-09-22T22:46:50.427Z,2.60
2022-09-22T22:49:17.977Z,2.97
2022-09-22T22:51:46.124Z,3.72
2022-09-22T22:54:14.495Z,2.53
2022-09-22T22:56:43.716Z,2.55
2022-09-22T22:59:13.362Z,3.58
2022-09-22T23:01:44.035Z,4.22
2022-09-22T23:04:12.411Z,3.10
2022-09-22T23:06:47.384Z,3.20
2022-09-22T23:09:16.887Z,2.90
2022-09-22T23:11:46.322Z,3.47
2022-09-22T23:14:16.243Z,3.20
2022-09-22T23:16:46.407Z,3.40
2022-09-22T23:19:17.318Z,2.78
2022-09-22T23:21:46.210Z,3.42
2022-09-22T23:24:19.135Z,2.35
2022-09-22T23:26:47.793Z,3.70
2022-09-22T23:29:15.376Z,3.08
2022-09-22T23:31:42.998Z,3.00
2022-09-22T23:34:10.578Z,2.55
2022-09-22T23:36:39.825Z,3.13
2022-09-22T23:39:07.655Z,3.28
2022-09-22T23:41:37.276Z,2.45
2022-09-22T23:44:06.800Z,2.20
2022-09-22T23:46:35.095Z,2.50
2022-09-22T23:49:02.814Z,2.15
2022-09-22T23:51:31.062Z,2.25
2022-09-22T23:53:58.670Z,4.38
2022-09-22T23:56:26.990Z,2.30
2022-09-22T23:58:55.603Z,1.98
